sensor_id;sensor_type;location;lat;lon;timestamp;pressure;altitude;pressure_sealevel;temperature;humidity
42601;BME280;28229;48.856;9.088;2022-10-22T00:00:32;97698.03;;;12.98;97.43
42601;BME280;28229;48.856;9.088;2022-10-22T00:02:57;97696.81;;;12.88;97.60
42601;BME280;28229;48.856;9.088;2022-10-22T00:05:23;97695.78;;;12.89;97.80
42601;BME280;28229;48.856;9.088;2022-10-22T00:07:49;97693.06;;;12.84;98.20
42601;BME280;28229;48.856;9.088;2022-10-22T00:10:15;97675.59;;;12.83;97.94
42601;BME280;28229;48.856;9.088;2022-10-22T00:12:43;97677.69;;;12.81;98.23
42601;BME280;28229;48.856;9.088;2022-10-22T00:15:10;97678.97;;;12.79;98.30
42601;BME280;28229;48.856;9.088;2022-10-22T00:17:36;97677.13;;;12.79;97.52
42601;BME280;28229;48.856;9.088;2022-10-22T00:20:02;97688.47;;;12.80;97.70
42601;BME280;28229;48.856;9.088;2022-10-22T00:22:29;97688.25;;;12.81;97.69
42601;BME280;28229;48.856;9.088;2022-10-22T00:24:55;97693.19;;;12.77;98.69
42601;BME280;28229;48.856;9.088;2022-10-22T00:27:20;97694.16;;;12.71;99.07
42601;BME280;28229;48.856;9.088;2022-10-22T00:29:46;97695.28;;;12.75;99.59
42601;BME280;28229;48.856;9.088;2022-10-22T00:32:12;97703.28;;;12.81;99.06
42601;BME280;28229;48.856;9.088;2022-10-22T00:34:41;97710.97;;;12.82;98.82
42601;BME280;28229;48.856;9.088;2022-10-22T00:37:07;97712.00;;;12.81;98.79
42601;BME280;28229;48.856;9.088;2022-10-22T00:39:33;97714.97;;;12.85;98.49
42601;BME280;28229;48.856;9.088;2022-10-22T00:41:58;97718.44;;;12.85;98.89
42601;BME280;28229;48.856;9.088;2022-10-22T00:47:30;97708.44;;;12.87;97.58
42601;BME280;28229;48.856;9.088;2022-10-22T00:49:58;97704.97;;;12.87;97.49
42601;BME280;28229;48.856;9.088;2022-10-22T00:52:24;97709.22;;;12.88;97.54
42601;BME280;28229;48.856;9.088;2022-10-22T00:54:50;97698.00;;;12.81;98.03
42601;BME280;28229;48.856;9.088;2022-10-22T00:57:18;97681.72;;;12.84;98.05
42601;BME280;28229;48.856;9.088;2022-10-22T00:59:45;97678.84;;;12.85;97.98
42601;BME280;28229;48.856;9.088;2022-10-22T01:02:10;97691.44;;;12.83;97.93
42601;BME280;28229;48.856;9.088;2022-10-22T01:04:36;97685.38;;;12.83;97.90
42601;BME280;28229;48.856;9.088;2022-10-22T01:07:14;97667.13;;;12.81;99.06
42601;BME280;28229;48.856;9.088;2022-10-22T01:09:48;97650.97;;;12.77;99.02
42601;BME280;28229;48.856;9.088;2022-10-22T01:12:27;97642.16;;;12.72;99.80
42601;BME280;28229;48.856;9.088;2022-10-22T01:17:58;97628.88;;;12.67;100.00
42601;BME280;28229;48.856;9.088;2022-10-22T01:20:45;97630.63;;;12.61;100.00
42601;BME280;28229;48.856;9.088;2022-10-22T01:26:12;97630.97;;;12.65;100.00
42601;BME280;28229;48.856;9.088;2022-10-22T01:31:38;97661.69;;;12.71;100.00
42601;BME280;28229;48.856;9.088;2022-10-22T01:34:07;97657.22;;;12.71;100.00
42601;BME280;28229;48.856;9.088;2022-10-22T01:36:34;97655.13;;;12.73;99.63
42601;BME280;28229;48.856;9.088;2022-10-22T01:39:02;97679.78;;;12.79;99.32
42601;BME280;28229;48.856;9.088;2022-10-22T01:41:29;97687.78;;;12.84;98.60
42601;BME280;28229;48.856;9.088;2022-10-22T01:43:55;97683.78;;;12.82;98.63
42601;BME280;28229;48.856;9.088;2022-10-22T01:46:23;97685.22;;;12.89;97.19
42601;BME280;28229;48.856;9.088;2022-10-22T01:49:20;97679.47;;;12.92;96.89
42601;BME280;28229;48.856;9.088;2022-10-22T01:52:09;97682.69;;;12.94;96.74
42601;BME280;28229;48.856;9.088;2022-10-22T01:54:49;97699.63;;;12.99;96.74
42601;BME280;28229;48.856;9.088;2022-10-22T01:57:30;97699.41;;;13.00;96.60
42601;BME280;28229;48.856;9.088;2022-10-22T02:00:08;97701.25;;;13.00;97.06
42601;BME280;28229;48.856;9.088;2022-10-22T02:05:09;97712.38;;;13.02;96.13
42601;BME280;28229;48.856;9.088;2022-10-22T02:07:43;97722.94;;;13.02;96.28
42601;BME280;28229;48.856;9.088;2022-10-22T02:10:12;97712.94;;;13.04;95.93
42601;BME280;28229;48.856;9.088;2022-10-22T02:12:39;97710.28;;;13.04;95.41
42601;BME280;28229;48.856;9.088;2022-10-22T02:15:07;97711.31;;;13.03;96.10
42601;BME280;28229;48.856;9.088;2022-10-22T02:17:36;97711.97;;;13.10;95.61
42601;BME280;28229;48.856;9.088;2022-10-22T02:20:12;97711.19;;;13.09;95.92
42601;BME280;28229;48.856;9.088;2022-10-22T02:22:41;97702.69;;;13.07;95.44
42601;BME280;28229;48.856;9.088;2022-10-22T02:25:08;97708.03;;;12.95;96.69
42601;BME280;28229;48.856;9.088;2022-10-22T02:27:44;97707.66;;;13.04;96.58
42601;BME280;28229;48.856;9.088;2022-10-22T02:30:19;97721.88;;;13.03;96.60
42601;BME280;28229;48.856;9.088;2022-10-22T02:35:21;97704.91;;;12.99;97.45
42601;BME280;28229;48.856;9.088;2022-10-22T02:37:48;97718.69;;;13.01;98.02
42601;BME280;28229;48.856;9.088;2022-10-22T02:40:16;97714.38;;;12.94;98.48
42601;BME280;28229;48.856;9.088;2022-10-22T02:42:43;97705.38;;;12.95;98.57
42601;BME280;28229;48.856;9.088;2022-10-22T02:45:11;97700.59;;;12.92;98.82
42601;BME280;28229;48.856;9.088;2022-10-22T02:47:37;97695.97;;;13.00;98.23
42601;BME280;28229;48.856;9.088;2022-10-22T02:50:04;97699.63;;;12.99;98.15
42601;BME280;28229;48.856;9.088;2022-10-22T02:52:30;97695.97;;;13.00;98.44
42601;BME280;28229;48.856;9.088;2022-10-22T02:54:55;97690.69;;;13.00;97.78
42601;BME280;28229;48.856;9.088;2022-10-22T02:57:21;97689.63;;;13.01;98.32
42601;BME280;28229;48.856;9.088;2022-10-22T02:59:47;97687.47;;;12.98;97.71
42601;BME280;28229;48.856;9.088;2022-10-22T03:02:13;97680.59;;;12.97;97.61
42601;BME280;28229;48.856;9.088;2022-10-22T03:04:39;97682.44;;;12.96;99.04
42601;BME280;28229;48.856;9.088;2022-10-22T03:07:05;97698.03;;;12.98;97.35
42601;BME280;28229;48.856;9.088;2022-10-22T03:09:31;97689.41;;;13.02;96.47
42601;BME280;28229;48.856;9.088;2022-10-22T03:11:58;97691.16;;;12.97;96.94
42601;BME280;28229;48.856;9.088;2022-10-22T03:14:24;97692.75;;;12.98;97.24
42601;BME280;28229;48.856;9.088;2022-10-22T03:16:49;97690.50;;;12.89;96.92
42601;BME280;28229;48.856;9.088;2022-10-22T03:19:15;97689.94;;;12.87;97.90
42601;BME280;28229;48.856;9.088;2022-10-22T03:21:58;97680.50;;;12.91;97.93
42601;BME280;28229;48.856;9.088;2022-10-22T03:24:45;97671.06;;;12.95;97.92
42601;BME280;28229;48.856;9.088;2022-10-22T03:27:14;97677.63;;;12.93;97.72
42601;BME280;28229;48.856;9.088;2022-10-22T03:29:41;97670.97;;;12.90;98.21
42601;BME280;28229;48.856;9.088;2022-10-22T03:32:07;97668.28;;;12.85;99.31
42601;BME280;28229;48.856;9.088;2022-10-22T03:34:33;97673.13;;;12.76;100.00
42601;BME280;28229;48.856;9.088;2022-10-22T03:37:00;97678.66;;;12.75;100.00
42601;BME280;28229;48.856;9.088;2022-10-22T03:39:28;97675.28;;;12.80;100.00
42601;BME280;28229;48.856;9.088;2022-10-22T03:41:56;97669.13;;;12.74;100.00
42601;BME280;28229;48.856;9.088;2022-10-22T03:44:22;97665.88;;;12.84;99.74
42601;BME280;28229;48.856;9.088;2022-10-22T03:46:49;97652.25;;;12.92;99.37
42601;BME280;28229;48.856;9.088;2022-10-22T03:49:14;97660.50;;;12.95;97.37
42601;BME280;28229;48.856;9.088;2022-10-22T03:51:40;97673.06;;;12.88;97.78
42601;BME280;28229;48.856;9.088;2022-10-22T03:54:06;97672.25;;;12.88;97.51
42601;BME280;28229;48.856;9.088;2022-10-22T03:56:32;97672.59;;;12.91;97.60
42601;BME280;28229;48.856;9.088;2022-10-22T03:58:59;97676.75;;;12.87;98.55
42601;BME280;28229;48.856;9.088;2022-10-22T04:01:26;97683.63;;;12.88;98.02
42601;BME280;28229;48.856;9.088;2022-10-22T04:03:54;97679.63;;;12.86;97.74
42601;BME280;28229;48.856;9.088;2022-10-22T04:06:20;97682.50;;;12.84;97.55
42601;BME280;28229;48.856;9.088;2022-10-22T04:08:47;97708.81;;;12.79;98.03
42601;BME280;28229;48.856;9.088;2022-10-22T04:11:14;97713.84;;;12.81;97.96
42601;BME280;28229;48.856;9.088;2022-10-22T04:13:40;97695.94;;;12.83;97.47
42601;BME280;28229;48.856;9.088;2022-10-22T04:16:10;97702.34;;;12.87;96.91
42601;BME280;28229;48.856;9.088;2022-10-22T04:18:37;97714.19;;;12.84;96.97
42601;BME280;28229;48.856;9.088;2022-10-22T04:21:05;97696.72;;;12.83;97.20
42601;BME280;28229;48.856;9.088;2022-10-22T04:23:31;97708.09;;;12.84;97.20
42601;BME280;28229;48.856;9.088;2022-10-22T04:26:02;97717.06;;;12.83;97.69
42601;BME280;28229;48.856;9.088;2022-10-22T04:28:28;97714.66;;;12.81;96.88
42601;BME280;28229;48.856;9.088;2022-10-22T04:30:54;97710.19;;;12.82;97.07
42601;BME280;28229;48.856;9.088;2022-10-22T04:33:20;97710.41;;;12.80;97.76
42601;BME280;28229;48.856;9.088;2022-10-22T04:35:46;97709.84;;;12.78;97.37
42601;BME280;28229;48.856;9.088;2022-10-22T04:38:12;97711.34;;;12.74;98.06
42601;BME280;28229;48.856;9.088;2022-10-22T04:40:37;97715.28;;;12.71;98.34
42601;BME280;28229;48.856;9.088;2022-10-22T04:43:03;97718.25;;;12.75;97.88
42601;BME280;28229;48.856;9.088;2022-10-22T04:45:29;97720.88;;;12.75;97.98
42601;BME280;28229;48.856;9.088;2022-10-22T04:47:56;97718.25;;;12.75;97.02
42601;BME280;28229;48.856;9.088;2022-10-22T04:50:22;97714.00;;;12.74;97.72
42601;BME280;28229;48.856;9.088;2022-10-22T04:52:48;97717.59;;;12.68;98.67
42601;BME280;28229;48.856;9.088;2022-10-22T04:55:14;97717.34;;;12.69;98.22
42601;BME280;28229;48.856;9.088;2022-10-22T04:57:40;97713.34;;;12.67;98.19
42601;BME280;28229;48.856;9.088;2022-10-22T05:00:06;97723.88;;;12.67;98.75
42601;BME280;28229;48.856;9.088;2022-10-22T05:02:32;97718.38;;;12.68;97.93
42601;BME280;28229;48.856;9.088;2022-10-22T05:04:58;97723.88;;;12.67;98.12
42601;BME280;28229;48.856;9.088;2022-10-22T05:07:24;97722.31;;;12.66;98.48
42601;BME280;28229;48.856;9.088;2022-10-22T05:09:50;97731.25;;;12.65;98.30
42601;BME280;28229;48.856;9.088;2022-10-22T05:12:16;97735.50;;;12.66;98.64
42601;BME280;28229;48.856;9.088;2022-10-22T05:14:41;97734.91;;;12.64;99.44
42601;BME280;28229;48.856;9.088;2022-10-22T05:17:08;97743.88;;;12.63;99.68
42601;BME280;28229;48.856;9.088;2022-10-22T05:19:33;97737.47;;;12.59;99.75
42601;BME280;28229;48.856;9.088;2022-10-22T05:22:01;97744.34;;;12.60;99.58
42601;BME280;28229;48.856;9.088;2022-10-22T05:24:31;97742.75;;;12.59;99.90
42601;BME280;28229;48.856;9.088;2022-10-22T05:26:58;97762.91;;;12.65;100.00
42601;BME280;28229;48.856;9.088;2022-10-22T05:29:24;97763.94;;;12.64;100.00
42601;BME280;28229;48.856;9.088;2022-10-22T05:31:51;97765.78;;;12.63;100.00
42601;BME280;28229;48.856;9.088;2022-10-22T05:34:18;97771.06;;;12.63;100.00
42601;BME280;28229;48.856;9.088;2022-10-22T05:36:43;97773.47;;;12.65;100.00
42601;BME280;28229;48.856;9.088;2022-10-22T05:39:10;97774.50;;;12.64;100.00
42601;BME280;28229;48.856;9.088;2022-10-22T05:41:35;97781.63;;;12.63;100.00
42601;BME280;28229;48.856;9.088;2022-10-22T05:44:02;97784.50;;;12.62;100.00
42601;BME280;28229;48.856;9.088;2022-10-22T05:46:29;97797.22;;;12.65;100.00
42601;BME280;28229;48.856;9.088;2022-10-22T05:48:59;97795.47;;;12.70;100.00
42601;BME280;28229;48.856;9.088;2022-10-22T05:51:26;97797.00;;;12.66;100.00
42601;BME280;28229;48.856;9.088;2022-10-22T05:53:54;97808.47;;;12.60;100.00
42601;BME280;28229;48.856;9.088;2022-10-22T05:56:21;97816.31;;;12.55;100.00
42601;BME280;28229;48.856;9.088;2022-10-22T05:58:47;97817.44;;;12.59;100.00
42601;BME280;28229;48.856;9.088;2022-10-22T06:01:19;97821.91;;;12.59;100.00
42601;BME280;28229;48.856;9.088;2022-10-22T06:03:45;97822.28;;;12.50;100.00
42601;BME280;28229;48.856;9.088;2022-10-22T06:06:37;97825.59;;;12.57;100.00
42601;BME280;28229;48.856;9.088;2022-10-22T06:09:10;97825.47;;;12.64;100.00
42601;BME280;28229;48.856;9.088;2022-10-22T06:11:38;97833.16;;;12.66;99.71
42601;BME280;28229;48.856;9.088;2022-10-22T06:14:04;97834.28;;;12.70;98.89
42601;BME280;28229;48.856;9.088;2022-10-22T06:16:30;97844.38;;;12.73;98.48
42601;BME280;28229;48.856;9.088;2022-10-22T06:18:58;97836.91;;;12.70;98.14
42601;BME280;28229;48.856;9.088;2022-10-22T06:21:24;97844.59;;;12.71;97.37
42601;BME280;28229;48.856;9.088;2022-10-22T06:23:50;97842.31;;;12.75;96.76
42601;BME280;28229;48.856;9.088;2022-10-22T06:26:16;97836.56;;;12.78;96.29
42601;BME280;28229;48.856;9.088;2022-10-22T06:28:42;97837.69;;;12.82;95.49
42601;BME280;28229;48.856;9.088;2022-10-22T06:31:08;97844.34;;;12.85;94.86
42601;BME280;28229;48.856;9.088;2022-10-22T06:33:34;97853.53;;;12.82;95.08
42601;BME280;28229;48.856;9.088;2022-10-22T06:36:18;97866.50;;;12.84;95.18
42601;BME280;28229;48.856;9.088;2022-10-22T06:38:44;97866.84;;;12.87;93.85
42601;BME280;28229;48.856;9.088;2022-10-22T06:41:15;97873.25;;;12.91;93.44
42601;BME280;28229;48.856;9.088;2022-10-22T06:43:42;97884.94;;;12.95;93.47
42601;BME280;28229;48.856;9.088;2022-10-22T06:46:10;97887.03;;;12.93;93.25
42601;BME280;28229;48.856;9.088;2022-10-22T06:48:37;97891.16;;;12.89;94.10
42601;BME280;28229;48.856;9.088;2022-10-22T06:51:06;97886.22;;;12.93;94.14
42601;BME280;28229;48.856;9.088;2022-10-22T06:53:32;97884.94;;;12.95;94.43
42601;BME280;28229;48.856;9.088;2022-10-22T06:55:58;97896.19;;;13.03;96.27
42601;BME280;28229;48.856;9.088;2022-10-22T06:58:24;97902.06;;;13.05;99.07
42601;BME280;28229;48.856;9.088;2022-10-22T07:00:59;97907.91;;;13.07;97.04
42601;BME280;28229;48.856;9.088;2022-10-22T07:03:25;97912.69;;;13.10;95.02
42601;BME280;28229;48.856;9.088;2022-10-22T07:05:51;97921.66;;;13.09;95.36
42601;BME280;28229;48.856;9.088;2022-10-22T07:08:17;97929.94;;;13.12;95.49
42601;BME280;28229;48.856;9.088;2022-10-22T07:10:42;97937.06;;;13.12;95.61
42601;BME280;28229;48.856;9.088;2022-10-22T07:13:08;97934.50;;;13.17;94.75
42601;BME280;28229;48.856;9.088;2022-10-22T07:15:34;97931.41;;;13.20;95.73
42601;BME280;28229;48.856;9.088;2022-10-22T07:18:00;97932.91;;;13.16;96.77
42601;BME280;28229;48.856;9.088;2022-10-22T07:20:29;97936.09;;;13.18;97.03
42601;BME280;28229;48.856;9.088;2022-10-22T07:22:54;97940.44;;;13.24;96.32
42601;BME280;28229;48.856;9.088;2022-10-22T07:25:20;97946.31;;;13.26;96.23
42601;BME280;28229;48.856;9.088;2022-10-22T07:27:46;97948.47;;;13.29;95.89
42601;BME280;28229;48.856;9.088;2022-10-22T07:30:12;97957.69;;;13.27;97.06
42601;BME280;28229;48.856;9.088;2022-10-22T07:32:38;97963.78;;;13.39;96.38
42601;BME280;28229;48.856;9.088;2022-10-22T07:35:04;97957.53;;;13.45;95.96
42601;BME280;28229;48.856;9.088;2022-10-22T07:37:30;97960.63;;;13.54;93.52
42601;BME280;28229;48.856;9.088;2022-10-22T07:39:56;97960.63;;;13.54;93.55
42601;BME280;28229;48.856;9.088;2022-10-22T07:42:22;97968.31;;;13.56;93.97
42601;BME280;28229;48.856;9.088;2022-10-22T07:44:47;97964.16;;;13.60;93.28
42601;BME280;28229;48.856;9.088;2022-10-22T07:47:13;97961.94;;;13.68;93.39
42601;BME280;28229;48.856;9.088;2022-10-22T07:49:39;97967.31;;;13.74;92.75
42601;BME280;28229;48.856;9.088;2022-10-22T07:52:06;97964.13;;;13.71;93.66
42601;BME280;28229;48.856;9.088;2022-10-22T07:54:32;97967.19;;;13.80;94.32
42601;BME280;28229;48.856;9.088;2022-10-22T07:56:58;97970.09;;;13.96;91.55
42601;BME280;28229;48.856;9.088;2022-10-22T07:59:24;97966.81;;;14.05;92.18
42601;BME280;28229;48.856;9.088;2022-10-22T08:01:49;97970.13;;;14.13;91.76
42601;BME280;28229;48.856;9.088;2022-10-22T08:04:15;97965.84;;;14.12;92.56
42601;BME280;28229;48.856;9.088;2022-10-22T08:06:41;97971.41;;;14.27;91.48
42601;BME280;28229;48.856;9.088;2022-10-22T08:09:07;97971.56;;;14.37;91.06
42601;BME280;28229;48.856;9.088;2022-10-22T08:11:33;97974.72;;;14.51;89.34
42601;BME280;28229;48.856;9.088;2022-10-22T08:13:59;97968.44;;;14.57;89.16
42601;BME280;28229;48.856;9.088;2022-10-22T08:16:25;97975.81;;;14.72;89.40
42601;BME280;28229;48.856;9.088;2022-10-22T08:18:51;97977.91;;;14.87;88.36
42601;BME280;28229;48.856;9.088;2022-10-22T08:21:17;97974.59;;;14.97;87.68
42601;BME280;28229;48.856;9.088;2022-10-22T08:23:43;97974.66;;;15.02;87.60
42601;BME280;28229;48.856;9.088;2022-10-22T08:26:10;97981.75;;;15.18;86.98
42601;BME280;28229;48.856;9.088;2022-10-22T08:28:36;97982.75;;;15.34;85.77
42601;BME280;28229;48.856;9.088;2022-10-22T08:31:04;97991.88;;;15.43;85.06
42601;BME280;28229;48.856;9.088;2022-10-22T08:33:30;97991.13;;;15.48;84.88
42601;BME280;28229;48.856;9.088;2022-10-22T08:35:56;97994.94;;;15.57;83.92
42601;BME280;28229;48.856;9.088;2022-10-22T08:38:21;97988.47;;;15.48;84.04
42601;BME280;28229;48.856;9.088;2022-10-22T08:40:50;97992.81;;;15.54;84.01
42601;BME280;28229;48.856;9.088;2022-10-22T08:49:02;97991.41;;;15.74;81.79
42601;BME280;28229;48.856;9.088;2022-10-22T08:51:32;97991.56;;;15.84;81.40
42601;BME280;28229;48.856;9.088;2022-10-22T08:54:45;97996.25;;;16.04;81.29
42601;BME280;28229;48.856;9.088;2022-10-22T08:57:23;98001.56;;;16.31;81.94
42601;BME280;28229;48.856;9.088;2022-10-22T09:08:19;97999.28;;;16.83;76.82
42601;BME280;28229;48.856;9.088;2022-10-22T09:10:57;98004.81;;;16.76;75.84
42601;BME280;28229;48.856;9.088;2022-10-22T09:13:26;97999.75;;;16.74;76.72
42601;BME280;28229;48.856;9.088;2022-10-22T09:15:56;98003.06;;;16.87;76.35
42601;BME280;28229;48.856;9.088;2022-10-22T09:23:47;97998.41;;;17.09;74.14
42601;BME280;28229;48.856;9.088;2022-10-22T09:26:16;97997.59;;;17.09;75.50
42601;BME280;28229;48.856;9.088;2022-10-22T09:28:42;98004.91;;;17.34;74.88
42601;BME280;28229;48.856;9.088;2022-10-22T09:31:12;98010.28;;;17.49;73.76
42601;BME280;28229;48.856;9.088;2022-10-22T09:33:40;98007.66;;;17.55;72.07
42601;BME280;28229;48.856;9.088;2022-10-22T09:36:06;98018.59;;;17.63;73.30
42601;BME280;28229;48.856;9.088;2022-10-22T09:38:38;98016.72;;;17.64;71.54
42601;BME280;28229;48.856;9.088;2022-10-22T09:41:05;98017.84;;;17.83;73.59
42601;BME280;28229;48.856;9.088;2022-10-22T09:43:31;98022.69;;;18.02;72.46
42601;BME280;28229;48.856;9.088;2022-10-22T09:46:01;98017.44;;;18.22;70.01
42601;BME280;28229;48.856;9.088;2022-10-22T09:48:35;98027.28;;;18.42;68.95
42601;BME280;28229;48.856;9.088;2022-10-22T09:51:13;98033.16;;;18.70;68.62
42601;BME280;28229;48.856;9.088;2022-10-22T09:53:46;98036.09;;;18.69;67.26
42601;BME280;28229;48.856;9.088;2022-10-22T09:56:32;98029.69;;;18.80;69.19
42601;BME280;28229;48.856;9.088;2022-10-22T09:59:00;98040.88;;;19.13;66.88
42601;BME280;28229;48.856;9.088;2022-10-22T10:01:31;98040.25;;;19.36;65.20
42601;BME280;28229;48.856;9.088;2022-10-22T10:04:09;98045.00;;;19.50;63.53
42601;BME280;28229;48.856;9.088;2022-10-22T10:06:37;98044.66;;;19.72;65.62
42601;BME280;28229;48.856;9.088;2022-10-22T10:09:19;98040.69;;;19.74;64.11
42601;BME280;28229;48.856;9.088;2022-10-22T10:14:58;98058.34;;;19.55;64.74
42601;BME280;28229;48.856;9.088;2022-10-22T10:17:32;98057.28;;;19.56;64.80
42601;BME280;28229;48.856;9.088;2022-10-22T10:25:54;98068.78;;;20.16;63.47
42601;BME280;28229;48.856;9.088;2022-10-22T10:28:31;98072.13;;;20.38;64.64
42601;BME280;28229;48.856;9.088;2022-10-22T10:31:21;98062.31;;;20.62;62.92
42601;BME280;28229;48.856;9.088;2022-10-22T10:34:32;98064.38;;;20.76;59.99
42601;BME280;28229;48.856;9.088;2022-10-22T10:42:22;98068.41;;;21.26;57.00
42601;BME280;28229;48.856;9.088;2022-10-22T10:50:16;98076.44;;;21.56;53.61
42601;BME280;28229;48.856;9.088;2022-10-22T10:52:52;98076.19;;;21.76;53.88
42601;BME280;28229;48.856;9.088;2022-10-22T10:55:36;98083.13;;;22.01;54.61
42601;BME280;28229;48.856;9.088;2022-10-22T10:58:19;98077.63;;;21.93;55.42
42601;BME280;28229;48.856;9.088;2022-10-22T11:00:54;98077.56;;;21.74;55.67
42601;BME280;28229;48.856;9.088;2022-10-22T11:03:35;98073.91;;;21.89;55.50
42601;BME280;28229;48.856;9.088;2022-10-22T11:06:11;98075.72;;;21.93;54.53
42601;BME280;28229;48.856;9.088;2022-10-22T11:08:43;98075.09;;;22.01;54.79
42601;BME280;28229;48.856;9.088;2022-10-22T11:11:33;98074.69;;;22.32;54.74
42601;BME280;28229;48.856;9.088;2022-10-22T11:14:09;98078.81;;;22.43;54.66
42601;BME280;28229;48.856;9.088;2022-10-22T11:16:42;98077.91;;;22.67;53.15
42601;BME280;28229;48.856;9.088;2022-10-22T11:19:19;98079.50;;;22.68;53.12
42601;BME280;28229;48.856;9.088;2022-10-22T11:22:10;98071.22;;;22.84;52.47
42601;BME280;28229;48.856;9.088;2022-10-22T11:24:53;98066.50;;;23.08;50.32
42601;BME280;28229;48.856;9.088;2022-10-22T11:27:31;98077.25;;;23.22;51.67
42601;BME280;28229;48.856;9.088;2022-10-22T11:30:04;98070.44;;;23.30;50.95
42601;BME280;28229;48.856;9.088;2022-10-22T11:32:32;98067.34;;;23.50;50.11
42601;BME280;28229;48.856;9.088;2022-10-22T11:35:00;98071.72;;;23.60;48.58
42601;BME280;28229;48.856;9.088;2022-10-22T11:37:31;98060.19;;;23.87;48.96
42601;BME280;28229;48.856;9.088;2022-10-22T11:42:35;98063.53;;;24.07;47.82
42601;BME280;28229;48.856;9.088;2022-10-22T11:50:26;98060.84;;;24.29;46.53
42601;BME280;28229;48.856;9.088;2022-10-22T11:52:59;98065.78;;;24.50;44.98
42601;BME280;28229;48.856;9.088;2022-10-22T11:55:33;98056.84;;;24.55;45.67
42601;BME280;28229;48.856;9.088;2022-10-22T12:00:51;98060.88;;;24.52;44.87
42601;BME280;28229;48.856;9.088;2022-10-22T12:03:23;98063.78;;;24.56;44.88
42601;BME280;28229;48.856;9.088;2022-10-22T12:11:19;98058.81;;;24.94;42.83
42601;BME280;28229;48.856;9.088;2022-10-22T12:16:27;98062.81;;;25.28;43.34
42601;BME280;28229;48.856;9.088;2022-10-22T12:19:02;98058.78;;;25.57;42.64
42601;BME280;28229;48.856;9.088;2022-10-22T12:21:31;98055.66;;;25.72;40.90
42601;BME280;28229;48.856;9.088;2022-10-22T12:23:59;98053.13;;;25.84;41.31
42601;BME280;28229;48.856;9.088;2022-10-22T12:26:27;98047.47;;;25.95;39.96
42601;BME280;28229;48.856;9.088;2022-10-22T12:28:57;98044.00;;;26.03;40.53
42601;BME280;28229;48.856;9.088;2022-10-22T12:31:24;98048.75;;;26.06;39.66
42601;BME280;28229;48.856;9.088;2022-10-22T12:33:57;98043.06;;;25.99;40.27
42601;BME280;28229;48.856;9.088;2022-10-22T12:36:25;98047.13;;;25.88;40.60
42601;BME280;28229;48.856;9.088;2022-10-22T12:38:51;98032.53;;;25.89;40.30
42601;BME280;28229;48.856;9.088;2022-10-22T12:41:20;98037.28;;;25.92;39.80
42601;BME280;28229;48.856;9.088;2022-10-22T12:43:45;98028.59;;;25.95;39.26
42601;BME280;28229;48.856;9.088;2022-10-22T12:46:13;98042.50;;;25.88;38.69
42601;BME280;28229;48.856;9.088;2022-10-22T12:48:44;98035.06;;;25.76;38.65
42601;BME280;28229;48.856;9.088;2022-10-22T12:51:16;98039.50;;;25.72;39.16
42601;BME280;28229;48.856;9.088;2022-10-22T12:53:48;98035.69;;;25.73;40.81
42601;BME280;28229;48.856;9.088;2022-10-22T12:56:21;98040.59;;;25.80;40.26
42601;BME280;28229;48.856;9.088;2022-10-22T12:58:52;98033.63;;;25.88;39.99
42601;BME280;28229;48.856;9.088;2022-10-22T13:01:19;98035.38;;;25.83;40.12
42601;BME280;28229;48.856;9.088;2022-10-22T13:03:48;98037.28;;;25.74;40.59
42601;BME280;28229;48.856;9.088;2022-10-22T13:08:57;98032.06;;;25.78;39.66
42601;BME280;28229;48.856;9.088;2022-10-22T13:11:37;98038.50;;;25.68;40.13
42601;BME280;28229;48.856;9.088;2022-10-22T13:17:10;98032.28;;;25.99;39.68
42601;BME280;28229;48.856;9.088;2022-10-22T13:19:41;98025.75;;;26.09;39.45
42601;BME280;28229;48.856;9.088;2022-10-22T13:22:37;98034.00;;;26.21;38.91
42601;BME280;28229;48.856;9.088;2022-10-22T13:27:42;98028.16;;;26.10;38.90
42601;BME280;28229;48.856;9.088;2022-10-22T13:32:55;98026.69;;;26.04;38.04
42601;BME280;28229;48.856;9.088;2022-10-22T13:35:31;98017.84;;;26.21;38.91
42601;BME280;28229;48.856;9.088;2022-10-22T13:37:58;98017.03;;;26.29;38.88
42601;BME280;28229;48.856;9.088;2022-10-22T13:40:25;98023.69;;;26.32;38.45
42601;BME280;28229;48.856;9.088;2022-10-22T13:42:52;98025.59;;;26.23;36.61
42601;BME280;28229;48.856;9.088;2022-10-22T13:45:18;98022.28;;;25.99;36.72
42601;BME280;28229;48.856;9.088;2022-10-22T13:47:48;98023.97;;;25.87;37.50
42601;BME280;28229;48.856;9.088;2022-10-22T13:50:17;98017.97;;;25.98;38.35
42601;BME280;28229;48.856;9.088;2022-10-22T13:52:52;98017.84;;;26.12;39.18
42601;BME280;28229;48.856;9.088;2022-10-22T13:55:22;98008.66;;;26.13;36.65
42601;BME280;28229;48.856;9.088;2022-10-22T13:57:54;98012.91;;;26.14;37.59
42601;BME280;28229;48.856;9.088;2022-10-22T14:00:24;98012.28;;;26.09;37.19
42601;BME280;28229;48.856;9.088;2022-10-22T14:02:53;98011.81;;;25.98;38.04
42601;BME280;28229;48.856;9.088;2022-10-22T14:05:21;98020.22;;;26.05;37.25
42601;BME280;28229;48.856;9.088;2022-10-22T14:07:47;98016.72;;;25.96;37.99
42601;BME280;28229;48.856;9.088;2022-10-22T14:10:21;98020.41;;;25.42;38.38
42601;BME280;28229;48.856;9.088;2022-10-22T14:12:48;98027.00;;;25.27;38.11
42601;BME280;28229;48.856;9.088;2022-10-22T14:15:17;98026.78;;;25.15;38.86
42601;BME280;28229;48.856;9.088;2022-10-22T14:17:45;98024.09;;;25.24;39.25
42601;BME280;28229;48.856;9.088;2022-10-22T14:20:19;98022.09;;;25.30;39.33
42601;BME280;28229;48.856;9.088;2022-10-22T14:22:47;98017.50;;;25.30;38.09
42601;BME280;28229;48.856;9.088;2022-10-22T14:25:19;98013.69;;;25.31;38.37
42601;BME280;28229;48.856;9.088;2022-10-22T14:27:46;98019.63;;;25.11;38.95
42601;BME280;28229;48.856;9.088;2022-10-22T14:30:23;98018.13;;;24.64;39.02
42601;BME280;28229;48.856;9.088;2022-10-22T14:32:50;98021.97;;;24.49;39.17
42601;BME280;28229;48.856;9.088;2022-10-22T14:35:19;98013.59;;;24.28;39.81
42601;BME280;28229;48.856;9.088;2022-10-22T14:37:46;98013.56;;;24.06;39.74